sensor_id;sensor_type;location;lat;lon;timestamp;P1;durP1;ratioP1;P2;durP2;ratioP2
71150;SDS011;59071;42.138;24.768;2024-02-14T00:02:14;2.25;;;1.60;;
71150;SDS011;59071;42.138;24.768;2024-02-14T00:04:40;1.90;;;1.50;;
71150;SDS011;59071;42.138;24.768;2024-02-14T00:07:05;1.77;;;1.48;;
71150;SDS011;59071;42.138;24.768;2024-02-14T00:09:30;2.03;;;1.48;;
71150;SDS011;59071;42.138;24.768;2024-02-14T00:11:56;1.52;;;1.40;;
71150;SDS011;59071;42.138;24.768;2024-02-14T00:14:22;1.95;;;1.40;;
71150;SDS011;59071;42.138;24.768;2024-02-14T00:16:47;1.50;;;1.30;;
71150;SDS011;59071;42.138;24.768;2024-02-14T00:19:12;1.40;;;1.20;;
71150;SDS011;59071;42.138;24.768;2024-02-14T00:21:39;3.00;;;1.40;;
71150;SDS011;59071;42.138;24.768;2024-02-14T00:24:04;1.40;;;1.30;;
71150;SDS011;59071;42.138;24.768;2024-02-14T00:26:30;1.92;;;1.38;;
71150;SDS011;59071;42.138;24.768;2024-02-14T00:28:56;2.42;;;1.52;;
71150;SDS011;59071;42.138;24.768;2024-02-14T00:31:21;1.77;;;1.40;;
71150;SDS011;59071;42.138;24.768;2024-02-14T00:33:47;1.55;;;1.20;;
71150;SDS011;59071;42.138;24.768;2024-02-14T00:36:12;1.67;;;1.23;;
71150;SDS011;59071;42.138;24.768;2024-02-14T00:38:38;1.35;;;1.10;;
71150;SDS011;59071;42.138;24.768;2024-02-14T00:41:03;1.83;;;1.20;;
71150;SDS011;59071;42.138;24.768;2024-02-14T00:43:29;1.42;;;1.30;;
71150;SDS011;59071;42.138;24.768;2024-02-14T00:45:54;2.05;;;1.30;;
71150;SDS011;59071;42.138;24.768;2024-02-14T00:48:21;1.55;;;1.38;;
71150;SDS011;59071;42.138;24.768;2024-02-14T00:50:47;2.67;;;1.58;;
71150;SDS011;59071;42.138;24.768;2024-02-14T00:53:13;1.25;;;1.13;;
71150;SDS011;59071;42.138;24.768;2024-02-14T00:55:38;2.38;;;1.48;;
71150;SDS011;59071;42.138;24.768;2024-02-14T00:58:04;1.42;;;1.27;;
71150;SDS011;59071;42.138;24.768;2024-02-14T01:00:30;1.50;;;1.25;;
71150;SDS011;59071;42.138;24.768;2024-02-14T01:02:56;1.52;;;1.13;;
71150;SDS011;59071;42.138;24.768;2024-02-14T01:05:22;1.67;;;1.35;;
71150;SDS011;59071;42.138;24.768;2024-02-14T01:07:48;1.65;;;1.55;;
71150;SDS011;59071;42.138;24.768;2024-02-14T01:10:13;2.17;;;1.40;;
71150;SDS011;59071;42.138;24.768;2024-02-14T01:12:39;1.60;;;1.33;;
71150;SDS011;59071;42.138;24.768;2024-02-14T01:15:05;1.90;;;1.33;;
71150;SDS011;59071;42.138;24.768;2024-02-14T01:17:31;1.63;;;1.35;;
71150;SDS011;59071;42.138;24.768;2024-02-14T01:19:56;2.30;;;1.60;;
71150;SDS011;59071;42.138;24.768;2024-02-14T01:22:23;1.58;;;1.30;;
71150;SDS011;59071;42.138;24.768;2024-02-14T01:24:49;1.85;;;1.30;;
71150;SDS011;59071;42.138;24.768;2024-02-14T01:27:14;1.60;;;1.33;;
71150;SDS011;59071;42.138;24.768;2024-02-14T01:29:41;2.30;;;1.52;;
71150;SDS011;59071;42.138;24.768;2024-02-14T01:32:06;1.20;;;1.10;;
71150;SDS011;59071;42.138;24.768;2024-02-14T01:34:32;1.63;;;1.33;;
71150;SDS011;59071;42.138;24.768;2024-02-14T01:36:57;1.33;;;1.23;;
71150;SDS011;59071;42.138;24.768;2024-02-14T01:39:23;1.83;;;1.40;;
71150;SDS011;59071;42.138;24.768;2024-02-14T01:41:48;1.98;;;1.50;;
71150;SDS011;59071;42.138;24.768;2024-02-14T01:44:14;1.83;;;1.40;;
71150;SDS011;59071;42.138;24.768;2024-02-14T01:46:40;1.52;;;1.40;;
71150;SDS011;59071;42.138;24.768;2024-02-14T01:49:07;2.05;;;1.60;;
71150;SDS011;59071;42.138;24.768;2024-02-14T01:51:34;2.30;;;1.52;;
71150;SDS011;59071;42.138;24.768;2024-02-14T01:54:01;1.80;;;1.60;;
71150;SDS011;59071;42.138;24.768;2024-02-14T01:56:28;2.20;;;1.40;;
71150;SDS011;59071;42.138;24.768;2024-02-14T01:58:54;2.25;;;1.30;;
71150;SDS011;59071;42.138;24.768;2024-02-14T02:01:21;1.35;;;1.20;;
71150;SDS011;59071;42.138;24.768;2024-02-14T02:03:48;1.58;;;1.48;;
71150;SDS011;59071;42.138;24.768;2024-02-14T02:06:14;2.50;;;1.50;;
71150;SDS011;59071;42.138;24.768;2024-02-14T02:08:42;2.08;;;1.30;;
71150;SDS011;59071;42.138;24.768;2024-02-14T02:11:08;2.83;;;1.67;;
71150;SDS011;59071;42.138;24.768;2024-02-14T02:13:34;2.05;;;1.40;;
71150;SDS011;59071;42.138;24.768;2024-02-14T02:15:59;1.58;;;1.48;;
71150;SDS011;59071;42.138;24.768;2024-02-14T02:18:29;1.95;;;1.58;;
71150;SDS011;59071;42.138;24.768;2024-02-14T02:20:55;2.10;;;1.73;;
71150;SDS011;59071;42.138;24.768;2024-02-14T02:23:21;2.35;;;1.67;;
71150;SDS011;59071;42.138;24.768;2024-02-14T02:25:46;2.17;;;1.70;;
71150;SDS011;59071;42.138;24.768;2024-02-14T02:28:12;1.98;;;1.73;;
71150;SDS011;59071;42.138;24.768;2024-02-14T02:30:38;2.03;;;1.70;;
71150;SDS011;59071;42.138;24.768;2024-02-14T02:33:03;2.47;;;1.83;;
71150;SDS011;59071;42.138;24.768;2024-02-14T02:35:30;2.33;;;1.80;;
71150;SDS011;59071;42.138;24.768;2024-02-14T02:37:55;2.67;;;1.75;;
71150;SDS011;59071;42.138;24.768;2024-02-14T02:40:22;2.95;;;1.65;;
71150;SDS011;59071;42.138;24.768;2024-02-14T02:42:48;2.67;;;1.90;;
71150;SDS011;59071;42.138;24.768;2024-02-14T02:45:15;2.20;;;2.00;;
71150;SDS011;59071;42.138;24.768;2024-02-14T02:47:40;2.30;;;1.80;;
71150;SDS011;59071;42.138;24.768;2024-02-14T02:50:06;2.28;;;1.83;;
71150;SDS011;59071;42.138;24.768;2024-02-14T02:52:32;4.00;;;1.90;;
71150;SDS011;59071;42.138;24.768;2024-02-14T02:54:58;2.38;;;1.80;;
71150;SDS011;59071;42.138;24.768;2024-02-14T02:57:25;2.45;;;1.75;;
71150;SDS011;59071;42.138;24.768;2024-02-14T02:59:51;2.50;;;2.00;;
71150;SDS011;59071;42.138;24.768;2024-02-14T03:02:17;2.70;;;2.00;;
71150;SDS011;59071;42.138;24.768;2024-02-14T03:04:44;2.95;;;2.08;;
71150;SDS011;59071;42.138;24.768;2024-02-14T03:07:10;4.07;;;2.30;;
71150;SDS011;59071;42.138;24.768;2024-02-14T03:09:36;5.50;;;2.20;;
71150;SDS011;59071;42.138;24.768;2024-02-14T03:12:01;2.95;;;2.10;;
71150;SDS011;59071;42.138;24.768;2024-02-14T03:14:30;2.85;;;2.40;;
71150;SDS011;59071;42.138;24.768;2024-02-14T03:16:57;2.95;;;2.38;;
71150;SDS011;59071;42.138;24.768;2024-02-14T03:19:26;2.60;;;2.13;;
71150;SDS011;59071;42.138;24.768;2024-02-14T03:21:52;3.60;;;2.47;;
71150;SDS011;59071;42.138;24.768;2024-02-14T03:24:19;3.72;;;2.55;;
71150;SDS011;59071;42.138;24.768;2024-02-14T03:26:44;3.78;;;2.50;;
71150;SDS011;59071;42.138;24.768;2024-02-14T03:29:09;3.38;;;2.33;;
71150;SDS011;59071;42.138;24.768;2024-02-14T03:31:35;3.20;;;2.60;;
71150;SDS011;59071;42.138;24.768;2024-02-14T03:34:01;3.67;;;2.70;;
71150;SDS011;59071;42.138;24.768;2024-02-14T03:36:26;3.65;;;2.88;;
71150;SDS011;59071;42.138;24.768;2024-02-14T03:38:55;3.65;;;2.83;;
71150;SDS011;59071;42.138;24.768;2024-02-14T03:41:24;4.03;;;2.97;;
71150;SDS011;59071;42.138;24.768;2024-02-14T03:43:49;3.53;;;2.70;;
71150;SDS011;59071;42.138;24.768;2024-02-14T03:46:17;3.65;;;2.90;;
71150;SDS011;59071;42.138;24.768;2024-02-14T03:48:46;3.72;;;2.80;;
71150;SDS011;59071;42.138;24.768;2024-02-14T03:51:12;4.45;;;2.90;;
71150;SDS011;59071;42.138;24.768;2024-02-14T03:53:38;3.47;;;2.80;;
71150;SDS011;59071;42.138;24.768;2024-02-14T03:56:03;4.82;;;3.03;;
71150;SDS011;59071;42.138;24.768;2024-02-14T03:58:29;3.67;;;2.90;;
71150;SDS011;59071;42.138;24.768;2024-02-14T04:00:55;4.28;;;3.08;;
71150;SDS011;59071;42.138;24.768;2024-02-14T04:03:20;4.35;;;3.10;;
71150;SDS011;59071;42.138;24.768;2024-02-14T04:05:45;4.18;;;3.10;;
71150;SDS011;59071;42.138;24.768;2024-02-14T04:08:12;4.13;;;3.38;;
71150;SDS011;59071;42.138;24.768;2024-02-14T04:10:38;4.93;;;3.40;;
71150;SDS011;59071;42.138;24.768;2024-02-14T04:13:04;4.72;;;3.63;;
71150;SDS011;59071;42.138;24.768;2024-02-14T04:15:30;6.10;;;3.50;;
71150;SDS011;59071;42.138;24.768;2024-02-14T04:17:56;4.75;;;3.45;;
71150;SDS011;59071;42.138;24.768;2024-02-14T04:20:21;5.70;;;3.80;;
71150;SDS011;59071;42.138;24.768;2024-02-14T04:22:46;5.55;;;3.60;;
71150;SDS011;59071;42.138;24.768;2024-02-14T04:25:12;5.43;;;3.50;;
71150;SDS011;59071;42.138;24.768;2024-02-14T04:27:37;5.32;;;3.78;;
71150;SDS011;59071;42.138;24.768;2024-02-14T04:30:03;5.05;;;3.67;;
71150;SDS011;59071;42.138;24.768;2024-02-14T04:32:29;7.68;;;4.30;;
71150;SDS011;59071;42.138;24.768;2024-02-14T04:34:54;5.43;;;4.28;;
71150;SDS011;59071;42.138;24.768;2024-02-14T04:37:19;5.47;;;3.92;;
71150;SDS011;59071;42.138;24.768;2024-02-14T04:39:45;5.00;;;3.70;;
71150;SDS011;59071;42.138;24.768;2024-02-14T04:42:11;6.22;;;3.80;;
71150;SDS011;59071;42.138;24.768;2024-02-14T04:44:36;9.90;;;6.80;;
71150;SDS011;59071;42.138;24.768;2024-02-14T04:47:02;6.22;;;4.03;;
71150;SDS011;59071;42.138;24.768;2024-02-14T04:49:27;5.38;;;3.50;;
71150;SDS011;59071;42.138;24.768;2024-02-14T04:51:54;5.22;;;3.60;;
71150;SDS011;59071;42.138;24.768;2024-02-14T04:54:20;5.65;;;3.88;;
71150;SDS011;59071;42.138;24.768;2024-02-14T04:56:45;5.28;;;3.85;;
71150;SDS011;59071;42.138;24.768;2024-02-14T04:59:11;6.38;;;3.80;;
71150;SDS011;59071;42.138;24.768;2024-02-14T05:01:36;5.13;;;3.58;;
71150;SDS011;59071;42.138;24.768;2024-02-14T05:04:02;5.18;;;3.72;;
71150;SDS011;59071;42.138;24.768;2024-02-14T05:06:29;5.50;;;3.55;;
71150;SDS011;59071;42.138;24.768;2024-02-14T05:08:54;5.18;;;3.80;;
71150;SDS011;59071;42.138;24.768;2024-02-14T05:11:20;5.55;;;3.50;;
71150;SDS011;59071;42.138;24.768;2024-02-14T05:13:45;5.22;;;3.70;;
71150;SDS011;59071;42.138;24.768;2024-02-14T05:16:11;5.50;;;3.78;;
71150;SDS011;59071;42.138;24.768;2024-02-14T05:18:37;7.70;;;4.55;;
71150;SDS011;59071;42.138;24.768;2024-02-14T05:21:06;6.78;;;4.32;;
71150;SDS011;59071;42.138;24.768;2024-02-14T05:23:33;6.38;;;4.07;;
71150;SDS011;59071;42.138;24.768;2024-02-14T05:26:02;7.35;;;4.20;;
71150;SDS011;59071;42.138;24.768;2024-02-14T05:28:28;5.80;;;3.97;;
71150;SDS011;59071;42.138;24.768;2024-02-14T05:30:54;8.18;;;4.47;;
71150;SDS011;59071;42.138;24.768;2024-02-14T05:33:19;5.05;;;3.90;;
71150;SDS011;59071;42.138;24.768;2024-02-14T05:35:47;6.05;;;3.97;;
71150;SDS011;59071;42.138;24.768;2024-02-14T05:38:16;6.93;;;4.90;;
71150;SDS011;59071;42.138;24.768;2024-02-14T05:40:44;7.15;;;4.70;;
71150;SDS011;59071;42.138;24.768;2024-02-14T05:43:10;7.10;;;4.63;;
71150;SDS011;59071;42.138;24.768;2024-02-14T05:45:35;7.38;;;4.82;;
71150;SDS011;59071;42.138;24.768;2024-02-14T05:48:01;7.43;;;4.88;;
71150;SDS011;59071;42.138;24.768;2024-02-14T05:50:27;6.53;;;4.00;;
71150;SDS011;59071;42.138;24.768;2024-02-14T05:52:52;6.70;;;4.80;;
71150;SDS011;59071;42.138;24.768;2024-02-14T05:55:18;7.80;;;5.00;;
71150;SDS011;59071;42.138;24.768;2024-02-14T05:57:43;7.72;;;4.93;;
71150;SDS011;59071;42.138;24.768;2024-02-14T06:00:09;7.25;;;4.45;;
71150;SDS011;59071;42.138;24.768;2024-02-14T06:02:35;6.45;;;4.38;;
71150;SDS011;59071;42.138;24.768;2024-02-14T06:05:01;6.30;;;4.20;;
71150;SDS011;59071;42.138;24.768;2024-02-14T06:07:26;5.72;;;4.43;;
71150;SDS011;59071;42.138;24.768;2024-02-14T06:09:53;5.82;;;3.95;;
71150;SDS011;59071;42.138;24.768;2024-02-14T06:12:18;5.70;;;4.22;;
71150;SDS011;59071;42.138;24.768;2024-02-14T06:14:43;5.85;;;3.70;;
71150;SDS011;59071;42.138;24.768;2024-02-14T06:17:09;5.82;;;3.95;;
71150;SDS011;59071;42.138;24.768;2024-02-14T06:19:34;5.18;;;3.90;;
71150;SDS011;59071;42.138;24.768;2024-02-14T06:22:01;5.13;;;3.80;;
71150;SDS011;59071;42.138;24.768;2024-02-14T06:24:26;5.65;;;4.22;;
71150;SDS011;59071;42.138;24.768;2024-02-14T06:26:51;5.10;;;3.92;;
71150;SDS011;59071;42.138;24.768;2024-02-14T06:29:17;5.80;;;4.18;;
71150;SDS011;59071;42.138;24.768;2024-02-14T06:31:42;7.22;;;4.40;;
71150;SDS011;59071;42.138;24.768;2024-02-14T06:34:08;6.70;;;3.97;;
71150;SDS011;59071;42.138;24.768;2024-02-14T06:36:33;5.85;;;4.18;;
71150;SDS011;59071;42.138;24.768;2024-02-14T06:38:58;5.68;;;4.25;;
71150;SDS011;59071;42.138;24.768;2024-02-14T06:41:24;5.43;;;4.03;;
71150;SDS011;59071;42.138;24.768;2024-02-14T06:43:49;6.82;;;3.70;;
71150;SDS011;59071;42.138;24.768;2024-02-14T06:46:15;6.80;;;4.18;;
71150;SDS011;59071;42.138;24.768;2024-02-14T06:48:40;7.60;;;4.32;;
71150;SDS011;59071;42.138;24.768;2024-02-14T06:51:08;6.55;;;4.22;;
71150;SDS011;59071;42.138;24.768;2024-02-14T06:53:34;5.93;;;4.15;;
71150;SDS011;59071;42.138;24.768;2024-02-14T06:56:00;5.45;;;3.92;;
71150;SDS011;59071;42.138;24.768;2024-02-14T06:58:26;5.45;;;4.25;;
71150;SDS011;59071;42.138;24.768;2024-02-14T07:00:51;7.30;;;5.30;;
71150;SDS011;59071;42.138;24.768;2024-02-14T07:03:17;6.72;;;4.50;;
71150;SDS011;59071;42.138;24.768;2024-02-14T07:05:42;5.82;;;4.00;;
71150;SDS011;59071;42.138;24.768;2024-02-14T07:08:08;5.50;;;4.20;;
71150;SDS011;59071;42.138;24.768;2024-02-14T07:10:34;7.13;;;4.00;;
71150;SDS011;59071;42.138;24.768;2024-02-14T07:12:59;6.90;;;4.45;;
71150;SDS011;59071;42.138;24.768;2024-02-14T07:15:24;6.47;;;4.18;;
71150;SDS011;59071;42.138;24.768;2024-02-14T07:17:53;5.95;;;4.45;;
71150;SDS011;59071;42.138;24.768;2024-02-14T07:20:23;8.13;;;4.13;;
71150;SDS011;59071;42.138;24.768;2024-02-14T07:22:51;8.25;;;4.90;;
71150;SDS011;59071;42.138;24.768;2024-02-14T07:25:18;8.55;;;4.90;;
71150;SDS011;59071;42.138;24.768;2024-02-14T07:27:44;7.07;;;4.90;;
71150;SDS011;59071;42.138;24.768;2024-02-14T07:30:11;7.32;;;5.20;;
71150;SDS011;59071;42.138;24.768;2024-02-14T07:32:37;7.93;;;5.40;;
71150;SDS011;59071;42.138;24.768;2024-02-14T07:35:03;9.43;;;5.78;;
71150;SDS011;59071;42.138;24.768;2024-02-14T07:37:30;7.25;;;5.15;;
71150;SDS011;59071;42.138;24.768;2024-02-14T07:39:55;8.95;;;5.13;;
71150;SDS011;59071;42.138;24.768;2024-02-14T07:42:21;10.50;;;5.43;;
71150;SDS011;59071;42.138;24.768;2024-02-14T07:44:46;8.52;;;5.28;;
71150;SDS011;59071;42.138;24.768;2024-02-14T07:47:12;8.00;;;5.28;;
71150;SDS011;59071;42.138;24.768;2024-02-14T07:49:38;7.68;;;5.20;;
71150;SDS011;59071;42.138;24.768;2024-02-14T07:52:04;7.70;;;5.03;;
71150;SDS011;59071;42.138;24.768;2024-02-14T07:54:30;7.55;;;4.93;;
71150;SDS011;59071;42.138;24.768;2024-02-14T07:56:55;7.60;;;5.47;;
71150;SDS011;59071;42.138;24.768;2024-02-14T07:59:20;7.65;;;5.00;;
71150;SDS011;59071;42.138;24.768;2024-02-14T08:01:46;7.63;;;5.00;;
71150;SDS011;59071;42.138;24.768;2024-02-14T08:04:11;7.22;;;4.85;;
71150;SDS011;59071;42.138;24.768;2024-02-14T08:06:36;7.65;;;4.93;;
71150;SDS011;59071;42.138;24.768;2024-02-14T08:09:02;7.07;;;4.97;;
71150;SDS011;59071;42.138;24.768;2024-02-14T08:11:31;7.10;;;5.10;;
71150;SDS011;59071;42.138;24.768;2024-02-14T08:13:56;8.13;;;5.20;;
71150;SDS011;59071;42.138;24.768;2024-02-14T08:16:23;10.60;;;4.75;;
71150;SDS011;59071;42.138;24.768;2024-02-14T08:18:49;6.72;;;4.70;;
71150;SDS011;59071;42.138;24.768;2024-02-14T08:21:15;7.30;;;5.03;;
71150;SDS011;59071;42.138;24.768;2024-02-14T08:23:41;6.57;;;4.53;;
71150;SDS011;59071;42.138;24.768;2024-02-14T08:26:07;11.35;;;4.97;;
71150;SDS011;59071;42.138;24.768;2024-02-14T08:28:36;6.95;;;4.95;;
71150;SDS011;59071;42.138;24.768;2024-02-14T08:31:02;8.02;;;5.18;;
71150;SDS011;59071;42.138;24.768;2024-02-14T08:33:28;9.85;;;5.43;;
71150;SDS011;59071;42.138;24.768;2024-02-14T08:35:53;7.82;;;5.30;;
71150;SDS011;59071;42.138;24.768;2024-02-14T08:38:22;8.15;;;5.50;;
71150;SDS011;59071;42.138;24.768;2024-02-14T08:40:48;8.30;;;5.80;;
71150;SDS011;59071;42.138;24.768;2024-02-14T08:43:13;9.15;;;6.00;;
71150;SDS011;59071;42.138;24.768;2024-02-14T08:45:39;13.35;;;6.28;;
71150;SDS011;59071;42.138;24.768;2024-02-14T08:48:04;11.77;;;5.85;;
71150;SDS011;59071;42.138;24.768;2024-02-14T08:50:30;10.68;;;5.82;;
71150;SDS011;59071;42.138;24.768;2024-02-14T08:52:55;10.27;;;5.65;;
71150;SDS011;59071;42.138;24.768;2024-02-14T08:55:21;11.32;;;5.90;;
71150;SDS011;59071;42.138;24.768;2024-02-14T08:57:46;10.77;;;6.57;;
71150;SDS011;59071;42.138;24.768;2024-02-14T09:00:15;14.23;;;7.75;;
71150;SDS011;59071;42.138;24.768;2024-02-14T09:02:44;8.70;;;5.88;;
71150;SDS011;59071;42.138;24.768;2024-02-14T09:05:13;9.00;;;6.45;;
71150;SDS011;59071;42.138;24.768;2024-02-14T09:07:39;10.02;;;6.20;;
71150;SDS011;59071;42.138;24.768;2024-02-14T09:10:06;11.70;;;6.90;;
71150;SDS011;59071;42.138;24.768;2024-02-14T09:12:32;10.23;;;6.60;;
71150;SDS011;59071;42.138;24.768;2024-02-14T09:14:58;9.63;;;6.20;;
71150;SDS011;59071;42.138;24.768;2024-02-14T09:17:24;8.80;;;5.93;;
71150;SDS011;59071;42.138;24.768;2024-02-14T09:19:49;8.60;;;6.18;;
71150;SDS011;59071;42.138;24.768;2024-02-14T09:22:14;8.93;;;6.05;;
71150;SDS011;59071;42.138;24.768;2024-02-14T09:24:46;10.18;;;6.70;;
71150;SDS011;59071;42.138;24.768;2024-02-14T09:27:11;11.82;;;7.05;;
71150;SDS011;59071;42.138;24.768;2024-02-14T09:29:37;11.57;;;6.10;;
71150;SDS011;59071;42.138;24.768;2024-02-14T09:32:03;9.52;;;6.63;;
71150;SDS011;59071;42.138;24.768;2024-02-14T09:34:29;10.40;;;6.57;;
71150;SDS011;59071;42.138;24.768;2024-02-14T09:36:54;9.60;;;7.05;;
71150;SDS011;59071;42.138;24.768;2024-02-14T09:39:21;9.82;;;6.68;;
71150;SDS011;59071;42.138;24.768;2024-02-14T09:41:50;10.48;;;7.10;;
71150;SDS011;59071;42.138;24.768;2024-02-14T09:44:20;10.77;;;6.88;;
71150;SDS011;59071;42.138;24.768;2024-02-14T09:46:47;11.82;;;7.05;;
71150;SDS011;59071;42.138;24.768;2024-02-14T09:49:13;12.98;;;7.47;;
71150;SDS011;59071;42.138;24.768;2024-02-14T09:51:41;11.15;;;7.38;;
71150;SDS011;59071;42.138;24.768;2024-02-14T09:54:09;10.60;;;7.47;;
71150;SDS011;59071;42.138;24.768;2024-02-14T09:56:36;9.13;;;6.63;;
71150;SDS011;59071;42.138;24.768;2024-02-14T09:59:02;10.43;;;7.18;;
71150;SDS011;59071;42.138;24.768;2024-02-14T10:01:27;11.40;;;7.40;;
71150;SDS011;59071;42.138;24.768;2024-02-14T10:03:54;10.60;;;7.63;;
71150;SDS011;59071;42.138;24.768;2024-02-14T10:06:19;13.23;;;8.18;;
71150;SDS011;59071;42.138;24.768;2024-02-14T10:08:46;11.80;;;7.80;;
71150;SDS011;59071;42.138;24.768;2024-02-14T10:11:12;12.90;;;7.93;;
71150;SDS011;59071;42.138;24.768;2024-02-14T10:13:40;13.60;;;8.68;;
71150;SDS011;59071;42.138;24.768;2024-02-14T10:16:05;12.52;;;8.20;;
71150;SDS011;59071;42.138;24.768;2024-02-14T10:18:33;13.68;;;8.60;;
71150;SDS011;59071;42.138;24.768;2024-02-14T10:20:59;16.40;;;8.65;;
71150;SDS011;59071;42.138;24.768;2024-02-14T10:23:24;14.70;;;8.93;;
71150;SDS011;59071;42.138;24.768;2024-02-14T10:25:53;12.02;;;7.43;;
71150;SDS011;59071;42.138;24.768;2024-02-14T10:28:21;9.90;;;7.25;;
71150;SDS011;59071;42.138;24.768;2024-02-14T10:30:46;13.77;;;7.15;;
71150;SDS011;59071;42.138;24.768;2024-02-14T10:33:14;9.63;;;6.68;;
71150;SDS011;59071;42.138;24.768;2024-02-14T10:35:40;13.35;;;7.38;;
71150;SDS011;59071;42.138;24.768;2024-02-14T10:38:07;10.77;;;6.75;;
71150;SDS011;59071;42.138;24.768;2024-02-14T10:40:34;9.70;;;6.40;;
71150;SDS011;59071;42.138;24.768;2024-02-14T10:43:01;10.43;;;6.93;;
71150;SDS011;59071;42.138;24.768;2024-02-14T10:45:26;9.45;;;6.90;;
71150;SDS011;59071;42.138;24.768;2024-02-14T10:47:56;10.27;;;6.40;;
71150;SDS011;59071;42.138;24.768;2024-02-14T10:50:22;7.70;;;5.75;;
71150;SDS011;59071;42.138;24.768;2024-02-14T10:52:49;8.88;;;6.05;;
71150;SDS011;59071;42.138;24.768;2024-02-14T10:55:18;8.10;;;5.75;;
71150;SDS011;59071;42.138;24.768;2024-02-14T10:57:51;9.27;;;5.85;;
71150;SDS011;59071;42.138;24.768;2024-02-14T11:00:19;9.70;;;6.65;;
71150;SDS011;59071;42.138;24.768;2024-02-14T11:02:45;9.48;;;6.00;;
71150;SDS011;59071;42.138;24.768;2024-02-14T11:05:15;9.07;;;5.85;;
71150;SDS011;59071;42.138;24.768;2024-02-14T11:07:47;7.22;;;5.60;;
71150;SDS011;59071;42.138;24.768;2024-02-14T11:10:14;9.15;;;5.95;;
71150;SDS011;59071;42.138;24.768;2024-02-14T11:12:42;8.20;;;5.65;;
71150;SDS011;59071;42.138;24.768;2024-02-14T11:15:17;8.63;;;5.45;;
71150;SDS011;59071;42.138;24.768;2024-02-14T11:17:45;8.18;;;6.00;;
71150;SDS011;59071;42.138;24.768;2024-02-14T11:20:32;9.95;;;5.80;;
71150;SDS011;59071;42.138;24.768;2024-02-14T11:23:00;9.23;;;5.63;;
71150;SDS011;59071;42.138;24.768;2024-02-14T11:25:32;7.63;;;5.68;;
71150;SDS011;59071;42.138;24.768;2024-02-14T11:27:59;6.78;;;5.20;;
71150;SDS011;59071;42.138;24.768;2024-02-14T11:30:30;12.45;;;5.57;;
71150;SDS011;59071;42.138;24.768;2024-02-14T11:33:21;9.57;;;5.38;;
71150;SDS011;59071;42.138;24.768;2024-02-14T11:35:52;8.15;;;5.95;;
71150;SDS011;59071;42.138;24.768;2024-02-14T11:38:20;12.73;;;5.55;;
71150;SDS011;59071;42.138;24.768;2024-02-14T11:40:54;7.45;;;5.32;;
71150;SDS011;59071;42.138;24.768;2024-02-14T11:43:23;8.18;;;5.10;;
71150;SDS011;59071;42.138;24.768;2024-02-14T11:45:49;8.48;;;5.32;;
71150;SDS011;59071;42.138;24.768;2024-02-14T11:48:15;8.07;;;5.22;;
71150;SDS011;59071;42.138;24.768;2024-02-14T11:50:42;7.88;;;5.43;;
71150;SDS011;59071;42.138;24.768;2024-02-14T11:53:12;8.27;;;5.53;;
71150;SDS011;59071;42.138;24.768;2024-02-14T11:55:42;6.57;;;5.20;;
71150;SDS011;59071;42.138;24.768;2024-02-14T11:58:11;7.82;;;5.75;;
71150;SDS011;59071;42.138;24.768;2024-02-14T12:00:38;12.10;;;5.68;;
71150;SDS011;59071;42.138;24.768;2024-02-14T12:03:07;9.02;;;5.40;;
71150;SDS011;59071;42.138;24.768;2024-02-14T12:05:36;11.02;;;5.70;;
71150;SDS011;59071;42.138;24.768;2024-02-14T12:08:03;9.10;;;5.65;;
71150;SDS011;59071;42.138;24.768;2024-02-14T12:10:31;10.07;;;5.60;;
71150;SDS011;59071;42.138;24.768;2024-02-14T12:12:57;8.55;;;5.78;;
71150;SDS011;59071;42.138;24.768;2024-02-14T12:15:25;8.63;;;5.90;;
71150;SDS011;59071;42.138;24.768;2024-02-14T12:17:52;10.25;;;5.95;;
71150;SDS011;59071;42.138;24.768;2024-02-14T12:20:21;7.53;;;5.55;;
71150;SDS011;59071;42.138;24.768;2024-02-14T12:22:51;8.15;;;5.72;;
71150;SDS011;59071;42.138;24.768;2024-02-14T12:25:16;7.05;;;5.18;;
71150;SDS011;59071;42.138;24.768;2024-02-14T12:27:42;7.05;;;5.13;;
71150;SDS011;59071;42.138;24.768;2024-02-14T12:30:07;10.93;;;5.45;;
71150;SDS011;59071;42.138;24.768;2024-02-14T12:32:33;14.40;;;6.20;;
71150;SDS011;59071;42.138;24.768;2024-02-14T12:34:58;11.50;;;5.70;;
71150;SDS011;59071;42.138;24.768;2024-02-14T12:37:24;11.38;;;6.10;;
71150;SDS011;59071;42.138;24.768;2024-02-14T12:39:50;9.50;;;5.43;;
71150;SDS011;59071;42.138;24.768;2024-02-14T12:42:15;10.35;;;6.15;;
71150;SDS011;59071;42.138;24.768;2024-02-14T12:44:43;8.57;;;5.72;;
71150;SDS011;59071;42.138;24.768;2024-02-14T12:47:08;8.60;;;5.30;;
71150;SDS011;59071;42.138;24.768;2024-02-14T12:49:34;8.25;;;5.57;;
71150;SDS011;59071;42.138;24.768;2024-02-14T12:51:59;8.32;;;5.70;;
71150;SDS011;59071;42.138;24.768;2024-02-14T12:54:25;9.73;;;5.97;;
71150;SDS011;59071;42.138;24.768;2024-02-14T12:56:51;8.48;;;5.60;;
71150;SDS011;59071;42.138;24.768;2024-02-14T12:59:17;8.20;;;5.53;;
71150;SDS011;59071;42.138;24.768;2024-02-14T13:01:43;7.82;;;5.60;;
71150;SDS011;59071;42.138;24.768;2024-02-14T13:04:09;8.90;;;5.88;;
71150;SDS011;59071;42.138;24.768;2024-02-14T13:06:35;7.93;;;5.82;;
71150;SDS011;59071;42.138;24.768;2024-02-14T13:09:02;9.30;;;6.10;;
71150;SDS011;59071;42.138;24.768;2024-02-14T13:11:30;8.75;;;6.00;;
71150;SDS011;59071;42.138;24.768;2024-02-14T13:13:56;7.68;;;5.70;;
71150;SDS011;59071;42.138;24.768;2024-02-14T13:16:22;6.38;;;5.18;;
71150;SDS011;59071;42.138;24.768;2024-02-14T13:18:47;7.20;;;4.50;;
71150;SDS011;59071;42.138;24.768;2024-02-14T13:21:13;9.68;;;4.60;;
71150;SDS011;59071;42.138;24.768;2024-02-14T13:23:38;7.22;;;4.80;;
71150;SDS011;59071;42.138;24.768;2024-02-14T13:26:05;4.90;;;3.65;;
71150;SDS011;59071;42.138;24.768;2024-02-14T13:28:32;7.25;;;4.60;;
71150;SDS011;59071;42.138;24.768;2024-02-14T13:30:58;7.65;;;4.65;;
71150;SDS011;59071;42.138;24.768;2024-02-14T13:33:24;7.03;;;4.20;;
71150;SDS011;59071;42.138;24.768;2024-02-14T13:35:49;5.97;;;4.03;;
71150;SDS011;59071;42.138;24.768;2024-02-14T13:38:15;6.00;;;4.72;;
71150;SDS011;59071;42.138;24.768;2024-02-14T13:40:41;6.85;;;4.55;;
71150;SDS011;59071;42.138;24.768;2024-02-14T13:43:06;7.43;;;4.32;;
71150;SDS011;59071;42.138;24.768;2024-02-14T13:45:41;9.95;;;4.80;;
71150;SDS011;59071;42.138;24.768;2024-02-14T13:48:08;8.68;;;5.20;;
71150;SDS011;59071;42.138;24.768;2024-02-14T13:50:34;8.30;;;4.88;;
71150;SDS011;59071;42.138;24.768;2024-02-14T13:53:00;7.95;;;4.85;;
71150;SDS011;59071;42.138;24.768;2024-02-14T13:55:25;8.15;;;4.88;;
71150;SDS011;59071;42.138;24.768;2024-02-14T13:57:50;8.57;;;4.80;;
71150;SDS011;59071;42.138;24.768;2024-02-14T14:00:16;7.82;;;4.88;;
71150;SDS011;59071;42.138;24.768;2024-02-14T14:02:41;6.85;;;4.38;;
71150;SDS011;59071;42.138;24.768;2024-02-14T14:05:08;6.53;;;4.30;;
71150;SDS011;59071;42.138;24.768;2024-02-14T14:07:38;6.70;;;4.63;;
71150;SDS011;59071;42.138;24.768;2024-02-14T14:10:05;6.35;;;4.28;;
71150;SDS011;59071;42.138;24.768;2024-02-14T14:12:30;6.68;;;4.65;;
71150;SDS011;59071;42.138;24.768;2024-02-14T14:14:56;8.30;;;4.78;;
71150;SDS011;59071;42.138;24.768;2024-02-14T14:17:22;6.68;;;4.65;;
71150;SDS011;59071;42.138;24.768;2024-02-14T14:19:47;8.10;;;5.53;;
71150;SDS011;59071;42.138;24.768;2024-02-14T14:22:13;6.45;;;4.50;;
71150;SDS011;59071;42.138;24.768;2024-02-14T14:24:39;9.15;;;4.90;;
71150;SDS011;59071;42.138;24.768;2024-02-14T14:27:05;5.82;;;4.43;;
71150;SDS011;59071;42.138;24.768;2024-02-14T14:29:34;6.07;;;4.70;;